createdAt,value
2022-09-20T05:00:53.762Z,72.20
2022-09-20T05:06:44.151Z,72.30
2022-09-20T05:12:19.013Z,72.50
2022-09-20T05:17:37.209Z,72.20
2022-09-20T05:23:05.768Z,72.20
2022-09-20T05:28:14.905Z,72.40
2022-09-20T05:33:28.121Z,72.50
2022-09-20T05:38:40.813Z,72.60
2022-09-20T05:43:53.809Z,72.70
2022-09-20T05:49:05.063Z,72.70
2022-09-20T05:54:30.856Z,72.80
2022-09-20T05:59:45.999Z,72.80
2022-09-20T06:05:00.371Z,72.80
2022-09-20T06:10:34.229Z,72.90
2022-09-20T06:15:44.847Z,73.10
2022-09-20T06:20:59.094Z,73.00
2022-09-20T06:26:07.827Z,72.90
2022-09-20T06:31:12.206Z,72.80
2022-09-20T06:36:38.305Z,72.90
2022-09-20T06:41:43.157Z,72.70
2022-09-20T06:46:47.888Z,72.70
2022-09-20T06:51:52.886Z,72.90
2022-09-20T06:56:56.513Z,72.50
2022-09-20T07:02:00.157Z,72.60
2022-09-20T07:07:09.429Z,72.70
2022-09-20T07:12:13.418Z,72.70
2022-09-20T07:17:17.093Z,72.80
2022-09-20T07:22:22.012Z,72.90
2022-09-20T07:27:29.244Z,72.90
2022-09-20T07:32:33.312Z,72.90
2022-09-20T07:37:41.354Z,72.80
2022-09-20T07:42:46.219Z,72.80
2022-09-20T07:47:50.144Z,72.90
2022-09-20T07:52:58.797Z,72.80
2022-09-20T07:58:02.965Z,72.60
2022-09-20T08:03:06.851Z,72.60
2022-09-20T08:08:13.322Z,72.70
2022-09-20T08:18:46.353Z,72.40
2022-09-20T08:23:52.341Z,72.30
2022-09-20T08:28:57.728Z,72.30
2022-09-20T08:34:03.723Z,72.00
2022-09-20T08:44:36.470Z,70.90
2022-09-20T08:49:40.563Z,69.90
2022-09-20T08:54:45.971Z,68.80
2022-09-20T08:59:50.451Z,67.40
2022-09-20T09:04:54.462Z,65.90
2022-09-20T09:10:00.819Z,64.60
2022-09-20T09:15:23.163Z,63.30
2022-09-20T09:20:27.375Z,62.10
2022-09-20T09:25:34.512Z,60.80
2022-09-20T09:30:40.057Z,59.00
2022-09-20T09:35:45.364Z,57.60
2022-09-20T09:40:55.458Z,56.20
2022-09-20T09:46:19.293Z,54.70
2022-09-20T09:51:23.521Z,53.30
2022-09-20T09:56:47.473Z,52.80
2022-09-20T10:02:02.649Z,52.20
2022-09-20T10:07:14.181Z,51.90
2022-09-20T10:12:36.948Z,51.20
2022-09-20T10:17:52.032Z,50.40
2022-09-20T10:23:39.394Z,49.90
2022-09-20T10:28:48.502Z,48.80
2022-09-20T10:34:03.633Z,47.70
2022-09-20T10:39:14.601Z,47.70
2022-09-20T10:44:37.998Z,46.60
2022-09-20T10:49:50.686Z,45.90
2022-09-20T10:55:14.740Z,45.80
2022-09-20T11:00:24.977Z,44.90
2022-09-20T11:05:35.888Z,45.30
2022-09-20T11:10:45.579Z,46.00
2022-09-20T11:15:59.550Z,45.80
2022-09-20T11:21:09.648Z,45.20
2022-09-20T11:26:19.640Z,45.00
2022-09-20T11:31:29.206Z,45.20
2022-09-20T11:36:44.080Z,45.60
2022-09-20T11:41:48.075Z,46.00
2022-09-20T11:46:57.383Z,46.50
2022-09-20T11:52:21.270Z,47.10
2022-09-20T11:57:25.552Z,47.30
2022-09-20T12:02:36.336Z,47.70
2022-09-20T12:07:42.265Z,47.90
2022-09-20T12:12:48.215Z,48.10
2022-09-20T12:18:32.116Z,48.20
2022-09-20T12:24:20.076Z,47.90
2022-09-20T12:29:57.380Z,46.70
2022-09-20T12:35:02.647Z,45.40
2022-09-20T12:40:16.473Z,44.70
2022-09-20T12:45:20.540Z,43.70
2022-09-20T12:50:43.385Z,43.20
2022-09-20T12:55:54.992Z,42.70
2022-09-20T13:01:46.077Z,42.20
2022-09-20T13:06:52.052Z,41.40
2022-09-20T13:11:57.155Z,41.80
2022-09-20T13:17:03.941Z,41.90
2022-09-20T13:22:14.263Z,42.40
2022-09-20T13:27:22.391Z,42.60
2022-09-20T13:32:27.973Z,43.10
2022-09-20T13:37:33.261Z,43.70
2022-09-20T13:42:36.946Z,43.90
2022-09-20T13:47:44.341Z,43.70
2022-09-20T13:52:51.604Z,43.80
2022-09-20T13:57:56.826Z,44.00
2022-09-20T14:03:00.785Z,43.80
2022-09-20T14:08:07.531Z,43.80
2022-09-20T14:13:17.285Z,43.80
2022-09-20T14:18:23.249Z,44.20
2022-09-20T14:23:30.551Z,44.80
2022-09-20T14:28:34.227Z,45.30
2022-09-20T14:33:42.693Z,46.00
2022-09-20T14:38:49.908Z,46.60
2022-09-20T14:43:57.948Z,47.00
2022-09-20T14:49:21.640Z,47.40
2022-09-20T14:54:29.943Z,47.80
2022-09-20T14:59:39.981Z,48.10
2022-09-20T15:04:54.281Z,48.40
2022-09-20T15:09:59.422Z,48.70
2022-09-20T15:15:02.953Z,48.80
2022-09-20T15:20:07.566Z,48.70
2022-09-20T15:25:16.919Z,48.90
2022-09-20T15:30:21.082Z,49.20
2022-09-20T15:35:24.717Z,49.40
2022-09-20T15:40:29.749Z,49.60
2022-09-20T15:45:33.444Z,49.80
2022-09-20T15:50:37.098Z,50.00
2022-09-20T15:55:42.018Z,50.30
2022-09-20T16:00:45.930Z,50.50
2022-09-20T16:06:04.150Z,50.50
2022-09-20T16:11:11.787Z,50.60
2022-09-20T16:16:16.037Z,50.60
2022-09-20T16:21:20.864Z,50.70
2022-09-20T16:26:29.148Z,50.80
2022-09-20T16:31:40.061Z,51.00
2022-09-20T16:36:45.429Z,51.20
2022-09-20T16:41:50.678Z,51.40
2022-09-20T16:46:54.406Z,51.60
2022-09-20T16:51:57.976Z,51.90
2022-09-20T16:57:03.120Z,52.10
2022-09-20T17:02:06.678Z,52.20
2022-09-20T17:07:10.317Z,52.40
2022-09-20T17:12:18.933Z,52.60
2022-09-20T17:17:22.974Z,52.80
2022-09-20T17:22:26.526Z,53.10
2022-09-20T17:27:32.793Z,53.40
2022-09-20T17:32:37.043Z,53.80
2022-09-20T17:37:41.569Z,54.10
2022-09-20T17:42:46.826Z,54.40
2022-09-20T17:47:50.367Z,54.60
2022-09-20T17:52:53.927Z,54.70
2022-09-20T17:57:58.811Z,55.10
2022-09-20T18:03:04.993Z,55.40
2022-09-20T18:08:08.713Z,55.80
2022-09-20T18:13:15.333Z,56.10
2022-09-20T18:18:20.113Z,56.50
2022-09-20T18:23:23.815Z,56.90
2022-09-20T18:28:29.001Z,57.20
2022-09-20T18:33:33.526Z,57.60
2022-09-20T18:38:37.207Z,58.10
2022-09-20T18:43:45.837Z,58.60
2022-09-20T18:48:49.437Z,58.90
2022-09-20T18:53:53.739Z,59.20
2022-09-20T18:59:00.363Z,59.60
2022-09-20T19:04:17.192Z,60.00
2022-09-20T19:09:27.003Z,60.50
2022-09-20T19:14:36.965Z,60.80
2022-09-20T19:19:50.252Z,61.10
2022-09-20T19:25:20.822Z,61.40
2022-09-20T19:30:26.882Z,61.80
2022-09-20T19:35:38.222Z,62.10
2022-09-20T19:40:48.810Z,62.50
2022-09-20T19:46:02.671Z,62.80
2022-09-20T19:51:11.089Z,63.20
2022-09-20T19:56:24.792Z,63.40
2022-09-20T20:01:31.517Z,63.80
2022-09-20T20:06:42.776Z,64.10
2022-09-20T20:11:54.215Z,64.40
2022-09-20T20:17:06.381Z,64.70
2022-09-20T20:22:17.939Z,64.90
2022-09-20T20:27:22.749Z,65.00
2022-09-20T20:32:28.005Z,65.20
2022-09-20T20:37:32.351Z,65.40
2022-09-20T20:42:37.094Z,65.60
2022-09-20T20:47:44.480Z,65.70
2022-09-20T20:52:53.475Z,65.80
2022-09-20T20:57:59.591Z,66.00
2022-09-20T21:03:05.714Z,66.30
2022-09-20T21:08:09.879Z,66.40
2022-09-20T21:13:13.381Z,66.80
2022-09-20T21:18:18.410Z,66.80
2022-09-20T21:23:21.960Z,67.00
2022-09-20T21:28:25.483Z,67.20
2022-09-20T21:33:34.252Z,67.40
2022-09-20T21:38:38.234Z,67.50
2022-09-20T21:43:43.200Z,67.70
2022-09-20T21:48:49.360Z,67.80
2022-09-20T21:53:56.384Z,68.10
2022-09-20T21:59:02.225Z,68.30
2022-09-20T22:04:09.566Z,68.50
2022-09-20T22:09:14.671Z,68.70
2022-09-20T22:14:20.086Z,68.80
2022-09-20T22:19:24.988Z,68.90
2022-09-20T22:24:29.955Z,69.10
2022-09-20T22:29:33.567Z,69.40
